createdAt,value
2023-03-29T00:00:24.000Z,456.728271484375
2023-03-29T00:03:08.000Z,456.323974609375
2023-03-29T00:05:48.000Z,453.2041015625
2023-03-29T00:08:28.000Z,451.9038391113281
2023-03-29T00:11:09.000Z,453.9204406738281
2023-03-29T00:13:51.000Z,455.1708068847656
2023-03-29T00:16:34.000Z,459.64263916015625
2023-03-29T00:19:15.000Z,465.375244140625
2023-03-29T00:22:02.000Z,460.4101257324219
2023-03-29T00:24:43.000Z,455.8073425292969
2023-03-29T00:27:23.000Z,455.6041259765625
2023-03-29T00:30:06.000Z,459.0069580078125
2023-03-29T00:32:47.000Z,455.9342346191406
2023-03-29T00:35:28.000Z,459.1609802246094
2023-03-29T00:38:11.000Z,459.3370056152344
2023-03-29T00:40:51.000Z,455.0904541015625
2023-03-29T00:43:30.000Z,451.3914489746094
2023-03-29T00:46:11.000Z,451.74761962890625
2023-03-29T00:48:52.000Z,451.2433166503906
2023-03-29T00:51:34.000Z,453.81329345703125
2023-03-29T00:54:21.000Z,454.26141357421875
2023-03-29T00:57:03.000Z,452.7623291015625
2023-03-29T00:59:43.000Z,450.26104736328125
2023-03-29T01:02:24.000Z,452.1523132324219
2023-03-29T01:05:05.000Z,452.58917236328125
2023-03-29T01:07:47.000Z,451.0918273925781
2023-03-29T01:10:27.000Z,455.1101989746094
2023-03-29T01:13:11.000Z,451.12933349609375
2023-03-29T01:15:54.000Z,452.5899353027344
2023-03-29T01:18:35.000Z,450.462646484375
2023-03-29T01:21:18.000Z,453.1977233886719
2023-03-29T01:24:00.000Z,453.9219665527344
2023-03-29T01:26:44.000Z,454.5289306640625
2023-03-29T01:29:27.000Z,454.2069091796875
2023-03-29T01:32:08.000Z,453.24420166015625
2023-03-29T01:34:51.000Z,453.1330871582031
2023-03-29T01:37:34.000Z,451.3108215332031
2023-03-29T01:40:15.000Z,451.809326171875
2023-03-29T01:42:58.000Z,452.2980041503906
2023-03-29T01:45:38.000Z,452.4501037597656
2023-03-29T01:48:21.000Z,454.98211669921875
2023-03-29T01:51:04.000Z,452.013427734375
2023-03-29T01:53:45.000Z,450.12054443359375
2023-03-29T01:56:28.000Z,456.3070373535156
2023-03-29T01:59:10.000Z,458.2571105957031
2023-03-29T02:01:52.000Z,456.7672424316406
2023-03-29T02:04:34.000Z,455.41619873046875
2023-03-29T02:07:15.000Z,458.8096008300781
2023-03-29T02:09:58.000Z,460.7986145019531
2023-03-29T02:12:41.000Z,458.1840515136719
2023-03-29T02:15:22.000Z,462.50732421875
2023-03-29T02:18:05.000Z,462.5879211425781
2023-03-29T02:20:46.000Z,461.6089782714844
2023-03-29T02:23:27.000Z,462.569091796875
2023-03-29T02:26:09.000Z,468.3494873046875
2023-03-29T02:28:53.000Z,463.0918273925781
2023-03-29T02:31:35.000Z,464.219482421875
2023-03-29T02:34:15.000Z,458.6028137207031
2023-03-29T02:36:55.000Z,454.6177978515625
2023-03-29T02:39:36.000Z,451.95965576171875
2023-03-29T02:42:17.000Z,455.3555603027344
2023-03-29T02:45:01.000Z,451.0452880859375
2023-03-29T02:47:41.000Z,451.1229553222656
2023-03-29T02:50:23.000Z,453.6193542480469
2023-03-29T02:53:06.000Z,456.4518127441406
2023-03-29T02:55:49.000Z,453.2373046875
2023-03-29T02:58:32.000Z,459.91241455078125
2023-03-29T03:01:15.000Z,459.70745849609375
2023-03-29T03:03:55.000Z,462.4910888671875
2023-03-29T03:06:47.000Z,457.5525817871094
2023-03-29T03:09:27.000Z,459.4400939941406
2023-03-29T03:12:08.000Z,461.1866455078125
2023-03-29T03:14:53.000Z,457.8941955566406
2023-03-29T03:17:34.000Z,460.0146484375
2023-03-29T03:20:16.000Z,462.8104248046875
2023-03-29T03:22:55.000Z,452.60528564453125
2023-03-29T03:25:35.000Z,452.0096435546875
2023-03-29T03:28:13.000Z,456.83544921875
2023-03-29T03:30:53.000Z,451.898193359375
2023-03-29T03:33:36.000Z,450.0187683105469
2023-03-29T03:36:18.000Z,455.1549377441406
2023-03-29T03:39:00.000Z,454.3578186035156
2023-03-29T03:41:45.000Z,454.1492004394531
2023-03-29T03:44:28.000Z,456.1023254394531
2023-03-29T03:47:09.000Z,449.4498596191406
2023-03-29T03:49:52.000Z,447.6807861328125
2023-03-29T03:52:35.000Z,448.63885498046875
2023-03-29T03:55:17.000Z,451.3082275390625
2023-03-29T03:58:02.000Z,457.1243591308594
2023-03-29T04:00:42.000Z,453.29144287109375
2023-03-29T04:03:27.000Z,454.3410949707031
2023-03-29T04:06:06.000Z,454.61541748046875
2023-03-29T04:08:47.000Z,455.1146240234375
2023-03-29T04:11:34.000Z,455.1234436035156
2023-03-29T04:14:16.000Z,457.86834716796875
2023-03-29T04:16:59.000Z,453.3718566894531
2023-03-29T04:19:41.000Z,452.2596130371094
2023-03-29T04:22:21.000Z,452.0440979003906
2023-03-29T04:25:01.000Z,451.242919921875
2023-03-29T04:27:43.000Z,449.1236267089844
2023-03-29T04:30:23.000Z,444.3021240234375
2023-03-29T04:33:06.000Z,447.86297607421875
2023-03-29T04:35:48.000Z,447.4798278808594
2023-03-29T04:38:33.000Z,450.6258544921875
2023-03-29T04:41:12.000Z,451.0957336425781
2023-03-29T04:43:53.000Z,445.6102294921875
2023-03-29T04:46:34.000Z,448.7295837402344
2023-03-29T04:49:16.000Z,445.56744384765625
2023-03-29T04:52:00.000Z,444.5893249511719
2023-03-29T04:54:43.000Z,448.45556640625
2023-03-29T04:57:28.000Z,444.3222961425781
2023-03-29T05:00:10.000Z,445.2115173339844
2023-03-29T05:02:52.000Z,444.85076904296875
2023-03-29T05:05:38.000Z,446.59918212890625
2023-03-29T05:08:19.000Z,446.44805908203125
2023-03-29T05:11:00.000Z,440.6308898925781
2023-03-29T05:13:41.000Z,439.9177551269531
2023-03-29T05:16:24.000Z,444.95770263671875
2023-03-29T05:19:06.000Z,442.26123046875
2023-03-29T05:21:47.000Z,438.1919250488281
2023-03-29T05:24:28.000Z,441.4714050292969
2023-03-29T05:27:10.000Z,441.9230041503906
2023-03-29T05:29:52.000Z,443.5055847167969
2023-03-29T05:32:35.000Z,446.1441345214844
2023-03-29T05:35:17.000Z,448.892578125
2023-03-29T05:37:58.000Z,443.7311706542969
2023-03-29T05:40:39.000Z,443.7264099121094
2023-03-29T05:43:20.000Z,446.0003356933594
2023-03-29T05:46:00.000Z,443.19427490234375
2023-03-29T05:48:42.000Z,441.267333984375
2023-03-29T05:51:24.000Z,444.9241027832031
2023-03-29T05:54:10.000Z,448.8176574707031
2023-03-29T05:56:51.000Z,446.1275634765625
2023-03-29T05:59:31.000Z,446.32513427734375
2023-03-29T06:02:10.000Z,448.2360534667969
2023-03-29T06:04:49.000Z,442.4721984863281
2023-03-29T06:07:29.000Z,445.97039794921875
2023-03-29T06:10:09.000Z,442.61480712890625
2023-03-29T06:12:55.000Z,442.862060546875
2023-03-29T06:15:37.000Z,444.4779968261719
2023-03-29T06:18:18.000Z,447.7793884277344
2023-03-29T06:21:00.000Z,448.4828796386719
2023-03-29T06:23:45.000Z,444.56396484375
2023-03-29T06:26:25.000Z,442.814453125
2023-03-29T06:29:07.000Z,441.075927734375
2023-03-29T06:31:46.000Z,441.0968933105469
2023-03-29T06:34:25.000Z,439.26593017578125
2023-03-29T06:37:06.000Z,446.7590637207031
2023-03-29T06:39:46.000Z,446.75384521484375
2023-03-29T06:42:28.000Z,454.1485595703125
2023-03-29T06:45:11.000Z,449.022216796875
2023-03-29T06:47:52.000Z,444.28594970703125
2023-03-29T06:50:34.000Z,449.01190185546875
2023-03-29T06:53:13.000Z,445.77490234375
2023-03-29T06:55:54.000Z,445.85528564453125
2023-03-29T06:58:36.000Z,446.4530334472656
2023-03-29T07:01:17.000Z,441.8343200683594
2023-03-29T07:04:00.000Z,440.7721252441406
2023-03-29T07:06:44.000Z,444.62347412109375
2023-03-29T07:09:27.000Z,446.4959716796875
2023-03-29T07:12:08.000Z,442.7750244140625
2023-03-29T07:14:50.000Z,435.00653076171875
2023-03-29T07:17:34.000Z,439.6695251464844
2023-03-29T07:20:16.000Z,444.6861877441406
2023-03-29T07:23:00.000Z,435.427490234375
2023-03-29T07:25:43.000Z,437.1740417480469
2023-03-29T07:28:22.000Z,444.6663818359375
2023-03-29T07:31:05.000Z,439.8460998535156
2023-03-29T07:33:46.000Z,439.0184631347656
2023-03-29T07:36:27.000Z,440.288330078125
2023-03-29T07:39:09.000Z,435.4059143066406
2023-03-29T07:41:51.000Z,438.14166259765625
2023-03-29T07:44:34.000Z,446.02166748046875
2023-03-29T07:47:17.000Z,438.46697998046875
2023-03-29T07:49:59.000Z,432.026123046875
2023-03-29T07:52:41.000Z,437.2767028808594
2023-03-29T07:55:23.000Z,435.4870300292969
2023-03-29T07:58:03.000Z,427.557373046875
2023-03-29T08:00:42.000Z,432.224365234375
2023-03-29T08:03:25.000Z,437.47344970703125
2023-03-29T08:06:13.000Z,435.2691650390625
2023-03-29T08:08:58.000Z,433.80517578125
2023-03-29T08:11:41.000Z,436.4117431640625
2023-03-29T08:14:25.000Z,436.5225524902344
2023-03-29T08:17:08.000Z,429.59588623046875
2023-03-29T08:19:51.000Z,436.7288513183594
2023-03-29T08:22:34.000Z,436.2869567871094
2023-03-29T08:25:18.000Z,431.80029296875
2023-03-29T08:28:07.000Z,430.8502502441406
2023-03-29T08:30:54.000Z,434.28265380859375
2023-03-29T08:33:41.000Z,432.96612548828125
2023-03-29T08:36:25.000Z,437.70843505859375
2023-03-29T08:39:09.000Z,432.3232116699219
2023-03-29T08:41:49.000Z,426.2666320800781
2023-03-29T08:44:31.000Z,432.1937561035156
2023-03-29T08:47:18.000Z,438.8233337402344
2023-03-29T08:50:00.000Z,432.75225830078125
2023-03-29T08:52:45.000Z,433.4928283691406
2023-03-29T08:55:32.000Z,436.4592590332031
2023-03-29T08:58:11.000Z,430.02984619140625
2023-03-29T09:00:53.000Z,434.6550598144531
2023-03-29T09:03:35.000Z,437.49896240234375
2023-03-29T09:06:17.000Z,435.9421691894531
2023-03-29T09:09:00.000Z,431.9964904785156
2023-03-29T09:11:45.000Z,434.9571533203125
2023-03-29T09:14:27.000Z,433.7229919433594
2023-03-29T09:17:08.000Z,434.1442565917969
2023-03-29T09:19:50.000Z,438.3028259277344
2023-03-29T09:22:30.000Z,434.5722961425781
2023-03-29T09:25:09.000Z,428.24237060546875
2023-03-29T09:27:57.000Z,431.70709228515625
2023-03-29T09:30:39.000Z,438.7676696777344
2023-03-29T09:33:25.000Z,434.6067810058594
2023-03-29T09:36:09.000Z,430.2648620605469
2023-03-29T09:38:51.000Z,432.4283142089844
2023-03-29T09:41:31.000Z,437.3867492675781
2023-03-29T09:44:15.000Z,434.0183410644531
2023-03-29T09:46:58.000Z,435.9466247558594
2023-03-29T09:49:41.000Z,445.038818359375
2023-03-29T09:52:23.000Z,434.8052978515625
2023-03-29T09:55:08.000Z,424.7444763183594
2023-03-29T09:57:52.000Z,440.10577392578125
2023-03-29T10:00:34.000Z,434.29974365234375
2023-03-29T10:03:17.000Z,425.59173583984375
2023-03-29T10:06:02.000Z,427.7358703613281
2023-03-29T10:08:47.000Z,438.7809753417969
2023-03-29T10:11:26.000Z,430.3211975097656
2023-03-29T10:14:09.000Z,424.3573303222656
2023-03-29T10:16:52.000Z,430.1430358886719
2023-03-29T10:19:37.000Z,441.27191162109375
2023-03-29T10:22:24.000Z,423.42999267578125
2023-03-29T10:25:06.000Z,417.3114318847656
2023-03-29T10:28:00.000Z,422.4263916015625
2023-03-29T10:30:41.000Z,426.42333984375
2023-03-29T10:33:24.000Z,428.35357666015625
2023-03-29T10:36:07.000Z,425.73907470703125
2023-03-29T10:38:51.000Z,438.7038879394531
2023-03-29T10:41:32.000Z,427.98736572265625
2023-03-29T10:44:10.000Z,417.57183837890625
2023-03-29T10:46:54.000Z,414.8625793457031
2023-03-29T10:49:41.000Z,422.6393127441406
2023-03-29T10:52:24.000Z,416.0335998535156
2023-03-29T10:55:06.000Z,415.4391784667969
2023-03-29T10:57:50.000Z,439.87939453125
2023-03-29T11:00:35.000Z,424.4286193847656
2023-03-29T11:03:18.000Z,420.98150634765625
2023-03-29T11:06:01.000Z,424.8616027832031
2023-03-29T11:08:43.000Z,423.9407958984375
2023-03-29T11:11:25.000Z,413.4431457519531
2023-03-29T11:14:10.000Z,406.6156311035156
2023-03-29T11:16:51.000Z,425.5550231933594
2023-03-29T11:19:31.000Z,420.52239990234375
2023-03-29T11:22:10.000Z,409.4862060546875
2023-03-29T11:24:50.000Z,430.8755187988281
2023-03-29T11:27:30.000Z,424.9132385253906
2023-03-29T11:30:13.000Z,408.39556884765625
2023-03-29T11:32:51.000Z,421.0133361816406
2023-03-29T11:35:35.000Z,422.4520263671875
2023-03-29T11:38:17.000Z,410.9500427246094
2023-03-29T11:41:05.000Z,413.212158203125
2023-03-29T11:43:46.000Z,431.06658935546875
2023-03-29T11:46:28.000Z,420.3766784667969
2023-03-29T11:49:11.000Z,407.9082336425781
2023-03-29T11:51:53.000Z,429.373779296875
2023-03-29T11:54:38.000Z,412.2965087890625
2023-03-29T11:57:19.000Z,409.5589294433594
2023-03-29T12:00:03.000Z,421.1133117675781
2023-03-29T12:02:45.000Z,430.3721618652344
2023-03-29T12:05:28.000Z,419.14849853515625
2023-03-29T12:08:10.000Z,395.5707702636719
2023-03-29T12:10:53.000Z,419.2724914550781
2023-03-29T12:13:41.000Z,435.61932373046875
2023-03-29T12:16:25.000Z,405.4259948730469
2023-03-29T12:19:07.000Z,408.9041442871094
2023-03-29T12:21:52.000Z,419.9230041503906
2023-03-29T12:24:35.000Z,406.4663391113281
2023-03-29T12:27:16.000Z,410.0573425292969
2023-03-29T12:29:53.000Z,383.34735107421875
2023-03-29T12:32:34.000Z,407.86090087890625
2023-03-29T12:35:16.000Z,399.8623352050781
2023-03-29T12:37:57.000Z,423.8592529296875
2023-03-29T12:40:37.000Z,423.6736755371094
2023-03-29T12:43:20.000Z,395.364990234375
2023-03-29T12:46:03.000Z,425.7515563964844
2023-03-29T12:48:46.000Z,439.7612609863281
2023-03-29T12:51:28.000Z,421.8274841308594
2023-03-29T12:54:10.000Z,420.62237548828125
2023-03-29T12:56:53.000Z,434.3581237792969
2023-03-29T12:59:35.000Z,419.886962890625
2023-03-29T13:02:17.000Z,413.1466064453125
2023-03-29T13:05:06.000Z,419.78045654296875
2023-03-29T13:07:48.000Z,429.59063720703125
2023-03-29T13:10:31.000Z,415.37939453125
2023-03-29T13:13:11.000Z,418.9810791015625
2023-03-29T13:15:53.000Z,422.6911926269531
2023-03-29T13:18:42.000Z,437.2964782714844
2023-03-29T13:21:22.000Z,403.02349853515625
2023-03-29T13:24:05.000Z,428.9339294433594
2023-03-29T13:26:48.000Z,428.643310546875
2023-03-29T13:29:29.000Z,410.2608947753906
2023-03-29T13:32:11.000Z,409.5711364746094
2023-03-29T13:34:55.000Z,432.995849609375
2023-03-29T13:37:41.000Z,414.4931335449219
2023-03-29T13:40:34.000Z,411.40386962890625
2023-03-29T13:43:25.000Z,405.9234924316406
2023-03-29T13:46:12.000Z,401.2501220703125
2023-03-29T13:48:55.000Z,418.9008483886719
2023-03-29T13:51:38.000Z,408.5527648925781
2023-03-29T13:54:24.000Z,409.6901550292969
2023-03-29T13:57:08.000Z,415.2087097167969
2023-03-29T13:59:51.000Z,414.0140075683594
2023-03-29T14:02:37.000Z,410.17138671875
2023-03-29T14:05:19.000Z,400.3231506347656
2023-03-29T14:08:06.000Z,421.99920654296875
2023-03-29T14:10:52.000Z,425.6940002441406
2023-03-29T14:13:40.000Z,415.1543884277344
2023-03-29T14:16:27.000Z,398.1387023925781
2023-03-29T14:19:09.000Z,418.2181701660156
2023-03-29T14:21:52.000Z,455.0932922363281
2023-03-29T14:24:36.000Z,403.8663330078125
2023-03-29T14:27:19.000Z,400.2989501953125
2023-03-29T14:30:12.000Z,409.9459533691406
2023-03-29T14:32:54.000Z,412.46533203125
2023-03-29T14:35:39.000Z,405.7635192871094
2023-03-29T14:38:31.000Z,400.7189025878906
2023-03-29T14:41:20.000Z,402.01409912109375
2023-03-29T14:44:05.000Z,415.0072021484375
2023-03-29T14:46:47.000Z,411.93328857421875
2023-03-29T14:49:29.000Z,409.796875
2023-03-29T14:52:11.000Z,413.353759765625
2023-03-29T14:54:56.000Z,426.69708251953125
2023-03-29T14:57:43.000Z,412.7574462890625
2023-03-29T15:00:26.000Z,412.9577941894531
2023-03-29T15:03:10.000Z,422.147705078125
2023-03-29T15:05:57.000Z,429.18670654296875
2023-03-29T15:08:53.000Z,425.0924377441406
2023-03-29T15:11:37.000Z,415.82794189453125
2023-03-29T15:14:20.000Z,423.0967712402344
2023-03-29T15:17:07.000Z,422.45098876953125
2023-03-29T15:19:51.000Z,420.5010681152344
2023-03-29T15:22:37.000Z,418.8714599609375
2023-03-29T15:25:22.000Z,420.4743957519531
2023-03-29T15:28:06.000Z,421.08050537109375
2023-03-29T15:30:52.000Z,420.05108642578125
2023-03-29T15:33:35.000Z,416.0435791015625
2023-03-29T15:36:19.000Z,423.39605712890625
2023-03-29T15:39:06.000Z,429.9983825683594
2023-03-29T15:41:48.000Z,424.9907531738281
2023-03-29T15:44:31.000Z,413.0986022949219
2023-03-29T15:47:23.000Z,416.7344665527344
2023-03-29T15:50:29.000Z,414.8569641113281
2023-03-29T15:53:23.000Z,428.17169189453125
2023-03-29T15:56:48.000Z,422.3885192871094
2023-03-29T15:59:30.000Z,426.0410461425781
2023-03-29T16:02:11.000Z,430.0693664550781
2023-03-29T16:04:54.000Z,428.2008972167969
2023-03-29T16:07:37.000Z,424.8958435058594
2023-03-29T16:10:31.000Z,422.66448974609375
2023-03-29T16:13:17.000Z,423.2467956542969
2023-03-29T16:16:05.000Z,426.45391845703125
2023-03-29T16:18:50.000Z,426.49749755859375
2023-03-29T16:21:35.000Z,423.1800231933594
2023-03-29T16:24:19.000Z,422.326171875
2023-03-29T16:27:03.000Z,427.4621276855469
2023-03-29T16:29:46.000Z,425.7437744140625
2023-03-29T16:32:30.000Z,425.10906982421875
2023-03-29T16:35:19.000Z,431.30242919921875
2023-03-29T16:38:06.000Z,430.16778564453125
2023-03-29T16:40:50.000Z,428.99859619140625
2023-03-29T16:43:32.000Z,431.4446105957031
2023-03-29T16:46:25.000Z,433.5350646972656
2023-03-29T16:49:10.000Z,428.1817626953125
2023-03-29T16:51:56.000Z,428.377197265625
2023-03-29T16:54:47.000Z,426.46728515625
2023-03-29T16:57:32.000Z,426.171630859375
2023-03-29T17:00:29.000Z,427.80865478515625
2023-03-29T17:03:10.000Z,435.3865051269531
2023-03-29T17:05:56.000Z,436.4685974121094
2023-03-29T17:08:39.000Z,434.016845703125
2023-03-29T17:11:21.000Z,436.37750244140625
2023-03-29T17:14:16.000Z,438.5254821777344
2023-03-29T17:17:01.000Z,435.8678894042969
2023-03-29T17:19:50.000Z,434.270263671875
2023-03-29T17:22:39.000Z,433.93853759765625
2023-03-29T17:25:23.000Z,437.39093017578125
2023-03-29T17:28:06.000Z,434.20367431640625
2023-03-29T17:30:54.000Z,432.14739990234375
2023-03-29T17:33:35.000Z,433.21917724609375
2023-03-29T17:36:25.000Z,435.9793701171875
2023-03-29T17:39:12.000Z,440.14312744140625
2023-03-29T17:41:53.000Z,444.3149108886719
2023-03-29T17:44:37.000Z,449.6203308105469
2023-03-29T17:47:21.000Z,458.6177673339844
2023-03-29T17:50:06.000Z,457.3805236816406
2023-03-29T17:52:48.000Z,457.7630310058594
2023-03-29T17:55:46.000Z,459.1289978027344
2023-03-29T17:58:30.000Z,459.00848388671875
2023-03-29T18:01:20.000Z,457.9479064941406
2023-03-29T18:04:10.000Z,457.8348388671875
2023-03-29T18:07:03.000Z,453.7237243652344
2023-03-29T18:09:54.000Z,453.8237609863281
2023-03-29T18:12:45.000Z,453.421142578125
2023-03-29T18:15:30.000Z,452.4845275878906
2023-03-29T18:18:12.000Z,453.42291259765625
2023-03-29T18:21:10.000Z,448.4140319824219
2023-03-29T18:23:55.000Z,441.1607971191406
2023-03-29T18:26:38.000Z,439.40032958984375
2023-03-29T18:29:20.000Z,441.632080078125
2023-03-29T18:32:12.000Z,441.5675048828125
2023-03-29T18:34:55.000Z,438.6928405761719
2023-03-29T18:37:37.000Z,439.7975769042969
2023-03-29T18:40:26.000Z,441.4710998535156
2023-03-29T18:43:08.000Z,440.2933654785156
2023-03-29T18:45:51.000Z,437.6003112792969
2023-03-29T18:48:37.000Z,434.64605712890625
2023-03-29T18:51:24.000Z,438.6875915527344
2023-03-29T18:54:08.000Z,439.6330871582031
2023-03-29T18:56:52.000Z,434.59527587890625
2023-03-29T18:59:35.000Z,430.25555419921875
2023-03-29T19:02:16.000Z,434.7709655761719
2023-03-29T19:05:02.000Z,436.2684020996094
2023-03-29T19:07:47.000Z,437.80731201171875
2023-03-29T19:10:30.000Z,438.2686462402344
2023-03-29T19:13:11.000Z,437.2876892089844
2023-03-29T19:15:59.000Z,436.8337097167969
2023-03-29T19:19:39.000Z,431.1048278808594
2023-03-29T19:22:25.000Z,432.9183044433594
2023-03-29T19:25:16.000Z,433.3730773925781
2023-03-29T19:28:01.000Z,431.0813903808594
2023-03-29T19:30:50.000Z,432.9866638183594
2023-03-29T19:33:34.000Z,432.6675720214844
2023-03-29T19:36:18.000Z,434.11627197265625
2023-03-29T19:39:03.000Z,435.43701171875
2023-03-29T19:41:47.000Z,428.2691955566406
2023-03-29T19:44:44.000Z,428.8500061035156
2023-03-29T19:47:38.000Z,434.8200988769531
2023-03-29T19:50:25.000Z,437.5242004394531
2023-03-29T19:53:10.000Z,436.2449035644531
2023-03-29T19:55:54.000Z,434.0461730957031
2023-03-29T19:58:39.000Z,431.8507385253906
2023-03-29T20:01:28.000Z,434.0328063964844
2023-03-29T20:04:12.000Z,435.79840087890625
2023-03-29T20:06:56.000Z,430.9781494140625
2023-03-29T20:09:41.000Z,431.0736999511719
2023-03-29T20:12:29.000Z,439.1989440917969
2023-03-29T20:15:10.000Z,439.8973083496094
2023-03-29T20:17:53.000Z,437.49639892578125
2023-03-29T20:20:39.000Z,438.2971496582031
2023-03-29T20:23:25.000Z,440.80096435546875
2023-03-29T20:26:08.000Z,436.9537353515625
2023-03-29T20:28:51.000Z,438.2978820800781
2023-03-29T20:31:42.000Z,441.2492370605469
2023-03-29T20:34:26.000Z,442.811767578125
2023-03-29T20:37:12.000Z,441.1098327636719
2023-03-29T20:39:54.000Z,438.90228271484375
2023-03-29T20:42:36.000Z,435.7033996582031
2023-03-29T20:45:19.000Z,437.66265869140625
2023-03-29T20:48:06.000Z,436.1534118652344
2023-03-29T20:50:47.000Z,437.4977722167969
2023-03-29T20:53:31.000Z,440.5992736816406
2023-03-29T20:56:19.000Z,443.3103942871094
2023-03-29T20:59:03.000Z,443.8312683105469
2023-03-29T21:01:47.000Z,441.1044006347656
2023-03-29T21:04:32.000Z,439.6385803222656
2023-03-29T21:07:26.000Z,435.65765380859375
2023-03-29T21:10:10.000Z,436.27197265625
2023-03-29T21:12:59.000Z,434.9147033691406
2023-03-29T21:15:46.000Z,432.228271484375
2023-03-29T21:18:29.000Z,433.4441223144531
2023-03-29T21:21:11.000Z,433.2249755859375
2023-03-29T21:24:05.000Z,433.3366394042969
2023-03-29T21:26:48.000Z,435.2690124511719
2023-03-29T21:29:35.000Z,433.4420471191406
2023-03-29T21:32:17.000Z,434.214599609375
2023-03-29T21:35:01.000Z,431.8607177734375
2023-03-29T21:37:47.000Z,428.4420471191406
2023-03-29T21:40:29.000Z,433.1871337890625
2023-03-29T21:43:20.000Z,435.447509765625
2023-03-29T21:46:05.000Z,434.2257995605469
2023-03-29T21:48:52.000Z,430.4906921386719
2023-03-29T21:51:37.000Z,430.4273376464844
2023-03-29T21:54:20.000Z,433.28948974609375
2023-03-29T21:57:06.000Z,431.3946838378906
2023-03-29T21:59:49.000Z,430.04962158203125
2023-03-29T22:02:33.000Z,429.8612976074219
2023-03-29T22:05:15.000Z,430.882080078125
2023-03-29T22:08:02.000Z,428.9693298339844
2023-03-29T22:10:44.000Z,434.92633056640625
2023-03-29T22:13:26.000Z,437.58148193359375
2023-03-29T22:16:10.000Z,436.1261901855469
2023-03-29T22:19:01.000Z,437.64385986328125
2023-03-29T22:21:46.000Z,439.7915344238281
2023-03-29T22:24:30.000Z,440.3133239746094
2023-03-29T22:27:19.000Z,435.74542236328125
2023-03-29T22:30:05.000Z,431.2004699707031
2023-03-29T22:32:49.000Z,433.9186096191406
2023-03-29T22:35:29.000Z,437.40631103515625
2023-03-29T22:38:12.000Z,437.54913330078125
2023-03-29T22:40:56.000Z,438.9944763183594
2023-03-29T22:43:43.000Z,437.2413024902344
2023-03-29T22:46:26.000Z,436.5987243652344
2023-03-29T22:49:13.000Z,434.1938171386719
2023-03-29T22:51:56.000Z,430.9555969238281
2023-03-29T22:54:39.000Z,434.6827392578125
2023-03-29T22:57:29.000Z,436.18157958984375
2023-03-29T23:00:15.000Z,436.6071472167969
2023-03-29T23:02:57.000Z,434.6835021972656
2023-03-29T23:05:42.000Z,429.85467529296875
2023-03-29T23:08:24.000Z,435.1937255859375
2023-03-29T23:11:09.000Z,433.8461608886719
2023-03-29T23:13:52.000Z,428.2984924316406
2023-03-29T23:16:35.000Z,434.0843200683594
2023-03-29T23:19:19.000Z,441.27862548828125
2023-03-29T23:22:05.000Z,432.4320068359375
2023-03-29T23:24:47.000Z,434.4102478027344
2023-03-29T23:27:38.000Z,433.6628112792969
2023-03-29T23:30:20.000Z,432.50439453125
2023-03-29T23:33:05.000Z,428.1832580566406
2023-03-29T23:35:50.000Z,425.05865478515625
2023-03-29T23:38:36.000Z,425.5220031738281
2023-03-29T23:41:22.000Z,428.70556640625
2023-03-29T23:44:10.000Z,431.5915832519531
2023-03-29T23:46:53.000Z,432.6660461425781
2023-03-29T23:49:42.000Z,433.2452392578125
2023-03-29T23:52:25.000Z,432.8856201171875
2023-03-29T23:55:10.000Z,428.0738220214844
2023-03-29T23:57:54.000Z,427.1380310058594
